CDT,Max TemperatureF,Mean TemperatureF,Min TemperatureF,Max Dew PointF,MeanDew PointF,Min DewpointF,Max Humidity, Mean Humidity, Min Humidity, Max Sea Level PressureIn, Mean Sea Level PressureIn, Min Sea Level PressureIn, Max VisibilityMiles, Mean VisibilityMiles, Min VisibilityMiles, Max Wind SpeedMPH, Mean Wind SpeedMPH, Max Gust SpeedMPH,PrecipitationIn, CloudCover, Events, WindDirDegrees
2011-10-1,76,58,40,35,33,31,70,46,21,30.27,30.21,30.15,10,10,10,18,10,25,0.00,0,,147
2011-10-2,83,66,48,39,36,34,61,41,20,30.18,30.14,30.06,10,10,10,21,10,26,0.00,0,,172
2011-10-3,85,65,44,43,39,35,70,45,20,30.13,30.08,30.04,10,10,10,24,11,32,0.00,0,,137
2011-10-4,91,74,57,45,43,39,57,37,16,30.04,30.00,29.93,10,10,10,23,13,30,0.00,0,,158
2011-10-5,85,71,57,44,40,36,57,38,19,30.00,29.93,29.87,10,10,10,30,16,38,0.00,0,,163
2011-10-6,81,69,57,55,45,38,55,45,34,29.89,29.80,29.70,10,10,10,38,21,49,0.08,1,,149
2011-10-7,82,73,64,64,56,46,64,53,41,29.87,29.79,29.75,10,9,2,33,20,41,0.11,4,Rain,174
2011-10-8,74,68,62,61,57,55,84,69,53,30.06,29.97,29.87,10,10,5,20,7,30,0.19,7,Rain-Thunderstorm,173
2011-10-9,75,67,58,61,57,55,93,75,57,30.11,30.04,29.95,10,10,2,26,8,35,0.28,7,Rain,144
2011-10-10,71,62,53,55,50,45,93,67,40,30.03,29.97,29.88,10,10,7,18,10,24,0.04,4,Rain,183
2011-10-11,75,64,52,57,53,47,89,71,53,29.89,29.77,29.70,10,10,9,21,9,25,0.18,4,Rain-Thunderstorm,183
2011-10-12,69,59,48,55,50,42,100,72,44,29.83,29.74,29.68,10,9,2,26,10,33,0.18,4,Rain,312
2011-10-13,71,58,44,41,36,31,77,50,23,29.88,29.84,29.78,10,10,10,24,12,36,0.00,0,,287
2011-10-14,59,49,38,36,31,26,70,49,28,30.06,29.98,29.85,10,10,10,26,12,35,0.00,2,,284
2011-10-15,75,54,32,44,35,28,82,55,27,30.07,29.91,29.75,10,10,10,21,7,28,0.00,0,,204
2011-10-16,62,49,35,39,33,26,82,55,28,30.10,30.05,29.86,10,10,10,22,9,26,0.00,0,,320
2011-10-17,49,42,34,40,36,27,83,75,66,30.10,30.06,30.02,10,10,10,20,7,24,0.02,5,Rain,270
2011-10-18,54,45,35,35,28,24,76,54,32,30.17,30.12,30.05,10,10,10,30,15,37,0.00,0,,327
2011-10-19,47,37,26,25,22,18,78,56,33,30.21,30.16,30.13,10,10,10,24,12,31,0.00,0,,333
2011-10-20,53,39,25,29,26,23,92,67,41,30.15,30.10,30.05,10,10,10,13,4,16,0.00,2,,284
2011-10-21,75,52,28,39,33,24,85,54,23,30.11,30.07,30.01,10,10,10,18,4,24,0.00,0,,299
2011-10-22,65,52,38,44,40,36,89,66,43,30.15,30.08,30.02,10,9,0,15,4,18,T,4,Fog,163
2011-10-23,76,57,37,44,37,31,93,57,21,30.03,29.97,29.88,10,7,0,24,5,30,0.00,2,Fog,274
2011-10-24,75,56,37,41,36,33,85,54,23,30.09,29.96,29.70,10,10,10,22,8,30,0.00,0,,166
2011-10-25,66,54,41,40,38,36,83,60,37,30.12,29.84,29.66,10,10,10,32,12,39,0.00,0,,341
2011-10-26,49,43,37,39,34,31,76,65,53,30.19,30.15,30.10,10,10,10,23,12,30,0.00,6,,329
2011-10-27,56,41,26,30,23,18,85,54,22,30.18,30.14,30.09,10,10,10,16,7,21,0.00,1,,250
2011-10-28,57,43,28,30,19,11,75,46,16,30.25,30.19,30.12,10,10,10,21,8,25,0.00,0,,277
2011-10-29,64,43,21,33,25,17,81,51,21,30.15,29.95,29.78,10,10,6,23,8,31,0.00,0,,168
2011-10-30,60,44,28,33,24,18,67,45,22,30.10,30.02,29.88,10,10,10,30,13,39,0.00,0,,300
2011-10-31,68,45,21,31,25,19,81,52,22,30.10,29.97,29.82,10,10,10,20,8,24,0.00,0,,164